createdAt,value
2022-11-05T00:00:05.645Z,4.85
2022-11-05T00:02:51.225Z,5.22
2022-11-05T00:05:38.009Z,5.10
2022-11-05T00:08:24.002Z,4.53
2022-11-05T00:10:52.162Z,4.97
2022-11-05T00:13:37.682Z,4.97
2022-11-05T00:16:35.260Z,4.80
2022-11-05T00:19:10.064Z,4.78
2022-11-05T00:21:57.464Z,4.57
2022-11-05T00:24:43.351Z,5.30
2022-11-05T00:27:11.956Z,5.22
2022-11-05T00:29:40.047Z,5.13
2022-11-05T00:32:08.104Z,4.82
2022-11-05T00:34:36.162Z,5.70
2022-11-05T00:37:05.780Z,5.18
2022-11-05T00:39:33.844Z,5.68
2022-11-05T00:42:18.327Z,6.22
2022-11-05T00:45:04.394Z,5.88
2022-11-05T00:47:51.765Z,6.35
2022-11-05T00:50:20.933Z,5.22
2022-11-05T00:52:59.616Z,5.50
2022-11-05T00:55:33.466Z,5.38
2022-11-05T00:58:04.425Z,5.38
2022-11-05T01:00:35.069Z,5.45
2022-11-05T01:03:04.829Z,5.70
2022-11-05T01:05:34.236Z,5.35
2022-11-05T01:08:03.640Z,5.82
2022-11-05T01:10:31.692Z,5.18
2022-11-05T01:12:59.825Z,5.97
2022-11-05T01:15:28.226Z,5.43
2022-11-05T01:17:56.288Z,5.82
2022-11-05T01:20:24.421Z,7.03
2022-11-05T01:22:52.461Z,6.10
2022-11-05T01:25:22.101Z,5.65
2022-11-05T01:27:50.382Z,5.50
2022-11-05T01:30:18.613Z,5.47
2022-11-05T01:32:47.010Z,5.40
2022-11-05T01:35:17.015Z,5.75
2022-11-05T01:37:45.308Z,5.32
2022-11-05T01:40:14.831Z,5.43
2022-11-05T01:42:44.955Z,5.35
2022-11-05T01:45:15.991Z,6.13
2022-11-05T01:47:51.456Z,5.20
2022-11-05T01:50:28.249Z,5.53
2022-11-05T01:53:02.225Z,6.03
2022-11-05T01:55:35.310Z,5.85
2022-11-05T01:58:08.299Z,5.35
2022-11-05T02:00:37.299Z,6.05
2022-11-05T02:03:05.766Z,4.72
2022-11-05T02:05:35.086Z,4.63
2022-11-05T02:08:04.000Z,5.35
2022-11-05T02:10:33.212Z,5.68
2022-11-05T02:13:01.430Z,5.93
2022-11-05T02:15:41.485Z,5.10
2022-11-05T02:18:21.400Z,5.25
2022-11-05T02:20:59.009Z,5.25
2022-11-05T02:23:55.401Z,5.47
2022-11-05T02:26:51.607Z,4.93
2022-11-05T02:29:57.206Z,5.38
2022-11-05T02:32:50.657Z,5.20
2022-11-05T02:35:31.523Z,4.75
2022-11-05T02:38:07.686Z,6.65
2022-11-05T02:40:46.813Z,29.98
2022-11-05T02:43:20.621Z,11.10
2022-11-05T02:45:55.349Z,6.88
2022-11-05T02:48:30.738Z,5.68
2022-11-05T02:51:06.302Z,6.03
2022-11-05T02:53:43.227Z,6.82
2022-11-05T02:56:18.206Z,6.22
2022-11-05T02:58:46.391Z,5.82
2022-11-05T03:01:15.048Z,6.07
2022-11-05T03:03:49.411Z,6.07
2022-11-05T03:06:49.895Z,6.63
2022-11-05T03:09:39.380Z,6.10
2022-11-05T03:12:19.889Z,6.55
2022-11-05T03:14:56.303Z,6.57
2022-11-05T03:17:34.398Z,6.45
2022-11-05T03:20:15.117Z,6.28
2022-11-05T03:22:48.644Z,7.25
2022-11-05T03:25:20.977Z,6.25
2022-11-05T03:27:55.386Z,6.18
2022-11-05T03:30:25.051Z,7.57
2022-11-05T03:32:59.356Z,6.82
2022-11-05T03:35:32.603Z,6.65
2022-11-05T03:38:05.145Z,7.55
2022-11-05T03:40:36.480Z,6.85
2022-11-05T03:43:09.746Z,6.80
2022-11-05T03:45:43.285Z,7.20
2022-11-05T03:48:14.574Z,7.45
2022-11-05T03:50:52.473Z,6.90
2022-11-05T03:53:24.653Z,6.32
2022-11-05T03:55:59.257Z,7.07
2022-11-05T03:58:28.336Z,6.88
2022-11-05T04:00:56.725Z,7.10
2022-11-05T04:03:24.897Z,7.18
2022-11-05T04:06:12.290Z,6.93
2022-11-05T04:08:59.873Z,6.38
2022-11-05T04:11:45.968Z,7.45
2022-11-05T04:14:14.161Z,6.72
2022-11-05T04:16:59.504Z,6.32
2022-11-05T04:19:41.540Z,7.00
2022-11-05T04:22:28.294Z,6.18
2022-11-05T04:24:56.452Z,7.00
2022-11-05T04:27:24.680Z,6.35
2022-11-05T04:30:10.055Z,8.68
2022-11-05T04:32:38.215Z,7.22
2022-11-05T04:35:07.382Z,6.88
2022-11-05T04:37:36.994Z,6.43
2022-11-05T04:40:05.644Z,6.03
2022-11-05T04:42:33.815Z,6.78
2022-11-05T04:45:02.011Z,6.60
2022-11-05T04:47:30.179Z,7.90
2022-11-05T04:49:58.341Z,6.72
2022-11-05T04:52:26.525Z,7.55
2022-11-05T04:54:56.109Z,6.28
2022-11-05T04:57:24.319Z,6.50
2022-11-05T04:59:53.887Z,6.60
2022-11-05T05:02:22.233Z,5.95
2022-11-05T05:04:50.580Z,5.72
2022-11-05T05:07:19.063Z,5.63
2022-11-05T05:09:47.222Z,6.85
2022-11-05T05:12:16.944Z,7.50
2022-11-05T05:14:45.122Z,6.65
2022-11-05T05:17:13.287Z,8.45
2022-11-05T05:19:58.983Z,8.60
2022-11-05T05:22:27.254Z,6.80
2022-11-05T05:24:56.597Z,7.07
2022-11-05T05:27:26.168Z,7.18
2022-11-05T05:29:54.320Z,8.00
2022-11-05T05:32:22.463Z,8.70
2022-11-05T05:34:50.664Z,7.18
2022-11-05T05:37:19.292Z,7.93
2022-11-05T05:39:47.932Z,7.95
2022-11-05T05:42:16.585Z,7.57
2022-11-05T05:44:46.157Z,7.75
2022-11-05T05:47:15.197Z,8.32
2022-11-05T05:49:43.384Z,7.78
2022-11-05T05:52:11.570Z,8.25
2022-11-05T05:54:42.731Z,8.40
2022-11-05T05:57:11.684Z,8.75
2022-11-05T05:59:39.862Z,10.13
2022-11-05T06:02:09.518Z,9.73
2022-11-05T06:04:37.814Z,10.07
2022-11-05T06:07:06.005Z,9.80
2022-11-05T06:09:34.198Z,9.27
2022-11-05T06:12:02.428Z,8.65
2022-11-05T06:14:30.596Z,9.65
2022-11-05T06:16:58.764Z,10.10
2022-11-05T06:19:29.261Z,10.52
2022-11-05T06:21:57.537Z,12.07
2022-11-05T06:24:25.730Z,10.35
2022-11-05T06:26:53.892Z,10.25
2022-11-05T06:29:22.098Z,9.38
2022-11-05T06:31:50.259Z,12.38
2022-11-05T06:34:18.445Z,10.88
2022-11-05T06:36:47.990Z,9.57
2022-11-05T06:39:16.171Z,10.88
2022-11-05T06:42:12.043Z,10.45
2022-11-05T06:44:33.460Z,10.75
2022-11-05T06:47:01.673Z,12.25
2022-11-05T06:49:29.909Z,13.38
2022-11-05T06:51:59.467Z,13.13
2022-11-05T06:54:27.653Z,11.07
2022-11-05T06:56:56.651Z,10.48
2022-11-05T06:59:24.879Z,11.93
2022-11-05T07:01:53.115Z,10.50
2022-11-05T07:04:21.397Z,11.77
2022-11-05T07:06:49.567Z,11.48
2022-11-05T07:09:19.383Z,13.40
2022-11-05T07:11:47.559Z,11.70
2022-11-05T07:14:15.933Z,11.57
2022-11-05T07:16:44.106Z,11.52
2022-11-05T07:19:12.393Z,9.55
2022-11-05T07:21:40.975Z,10.05
2022-11-05T07:24:09.793Z,11.05
2022-11-05T07:26:39.402Z,10.80
2022-11-05T07:29:07.580Z,10.55
2022-11-05T07:31:35.802Z,9.38
2022-11-05T07:34:04.725Z,12.52
2022-11-05T07:36:32.942Z,14.57
2022-11-05T07:39:01.113Z,14.75
2022-11-05T07:41:29.377Z,12.43
2022-11-05T07:43:58.977Z,11.48
2022-11-05T07:46:27.157Z,11.98
2022-11-05T07:48:55.322Z,10.95
2022-11-05T07:51:23.653Z,11.10
2022-11-05T07:53:51.835Z,9.85
2022-11-05T07:56:20.006Z,9.75
2022-11-05T07:58:48.196Z,9.48
2022-11-05T08:01:18.023Z,9.38
2022-11-05T08:03:46.448Z,9.77
2022-11-05T08:06:14.703Z,10.10
2022-11-05T08:08:42.934Z,12.00
2022-11-05T08:11:12.235Z,10.45
2022-11-05T08:13:42.795Z,9.13
2022-11-05T08:16:11.089Z,10.35
2022-11-05T08:18:40.700Z,9.40
2022-11-05T08:21:09.555Z,10.57
2022-11-05T08:23:39.038Z,10.63
2022-11-05T08:26:07.338Z,9.30
2022-11-05T08:28:35.548Z,8.98
2022-11-05T08:31:03.845Z,9.38
2022-11-05T08:33:33.203Z,8.85
2022-11-05T08:36:05.516Z,9.48
2022-11-05T08:38:33.692Z,8.27
2022-11-05T08:41:01.973Z,8.25
2022-11-05T08:43:30.156Z,7.95
2022-11-05T08:45:58.336Z,8.77
2022-11-05T08:48:26.530Z,8.27
2022-11-05T08:50:55.304Z,9.02
2022-11-05T08:53:24.861Z,7.93
2022-11-05T08:55:53.269Z,7.00
2022-11-05T08:58:21.459Z,7.50
2022-11-05T09:00:51.179Z,8.15
2022-11-05T09:03:19.798Z,8.43
2022-11-05T09:05:48.377Z,8.70
2022-11-05T09:08:18.840Z,8.02
2022-11-05T09:10:49.922Z,8.32
2022-11-05T09:13:20.102Z,7.65
2022-11-05T09:15:49.209Z,8.05
2022-11-05T09:18:18.604Z,7.90
2022-11-05T09:20:47.180Z,8.90
2022-11-05T09:23:16.187Z,8.20
2022-11-05T09:25:44.608Z,8.77
2022-11-05T09:28:17.143Z,8.73
2022-11-05T09:30:46.911Z,8.20
2022-11-05T09:33:15.800Z,9.73
2022-11-05T09:35:44.466Z,8.43
2022-11-05T09:38:12.936Z,8.85
2022-11-05T09:40:49.025Z,7.95
2022-11-05T09:43:26.083Z,8.30
2022-11-05T09:46:01.410Z,7.43
2022-11-05T09:48:32.010Z,7.70
2022-11-05T09:51:00.590Z,7.72
2022-11-05T09:53:29.135Z,5.97
2022-11-05T09:56:00.235Z,6.43
2022-11-05T09:58:38.209Z,7.33
2022-11-05T10:01:12.070Z,8.70
2022-11-05T10:03:46.731Z,8.10
2022-11-05T10:06:21.281Z,7.32
2022-11-05T10:08:52.900Z,7.88
2022-11-05T10:11:26.286Z,6.55
2022-11-05T10:13:59.934Z,8.95
2022-11-05T10:16:31.945Z,8.27
2022-11-05T10:19:06.240Z,7.28
2022-11-05T10:22:04.321Z,7.03
2022-11-05T10:24:23.250Z,7.00
2022-11-05T10:26:53.841Z,6.85
2022-11-05T10:29:27.571Z,6.82
2022-11-05T10:31:57.262Z,7.65
2022-11-05T10:34:28.538Z,8.23
2022-11-05T10:36:56.786Z,16.45
2022-11-05T10:39:27.723Z,18.45
2022-11-05T10:42:35.005Z,9.03
2022-11-05T10:45:15.782Z,5.97
2022-11-05T10:48:03.873Z,7.30
2022-11-05T10:50:32.906Z,5.72
2022-11-05T10:53:05.520Z,5.57
2022-11-05T10:55:37.391Z,5.30
2022-11-05T10:58:11.914Z,5.65
2022-11-05T11:00:41.813Z,5.60
2022-11-05T11:03:35.913Z,6.13
2022-11-05T11:06:07.807Z,5.85
2022-11-05T11:11:08.962Z,5.57
2022-11-05T11:13:53.685Z,5.45
2022-11-05T11:16:24.695Z,5.45
2022-11-05T11:18:55.914Z,5.53
2022-11-05T11:21:24.951Z,5.30
2022-11-05T11:23:57.012Z,5.65
2022-11-05T11:26:27.340Z,4.90
2022-11-05T11:29:00.183Z,5.38
2022-11-05T11:31:32.501Z,5.45
2022-11-05T11:34:04.593Z,5.80
2022-11-05T11:36:41.388Z,5.18
2022-11-05T11:39:16.794Z,5.93
2022-11-05T11:41:46.201Z,5.97
2022-11-05T11:44:19.289Z,5.43
2022-11-05T11:46:51.256Z,4.80
2022-11-05T11:52:04.440Z,4.15
2022-11-05T11:54:34.775Z,3.67
2022-11-05T11:57:03.075Z,3.58
2022-11-05T12:00:06.656Z,3.85
2022-11-05T12:02:58.807Z,3.75
2022-11-05T12:05:45.113Z,3.63
2022-11-05T12:08:34.581Z,3.63
2022-11-05T12:11:08.441Z,4.25
2022-11-05T12:14:05.668Z,3.90
2022-11-05T12:17:16.276Z,3.88
2022-11-05T12:20:14.894Z,3.08
2022-11-05T12:23:34.029Z,2.90
2022-11-05T12:26:08.835Z,2.90
2022-11-05T12:29:17.190Z,2.88
2022-11-05T12:31:51.267Z,3.10
2022-11-05T12:34:35.808Z,2.92
2022-11-05T12:37:17.383Z,3.63
2022-11-05T12:39:58.920Z,2.95
2022-11-05T12:42:44.120Z,2.72
2022-11-05T12:45:28.263Z,3.10
2022-11-05T12:48:12.610Z,3.10
2022-11-05T12:50:46.226Z,3.28
2022-11-05T12:53:48.780Z,4.28
2022-11-05T12:56:22.437Z,3.13
2022-11-05T12:58:59.267Z,3.80
2022-11-05T13:01:34.044Z,2.28
2022-11-05T13:04:08.988Z,3.40
2022-11-05T13:06:41.362Z,3.20
2022-11-05T13:09:16.444Z,2.58
2022-11-05T13:11:49.402Z,2.60
2022-11-05T13:14:21.557Z,2.53
2022-11-05T13:16:52.785Z,2.75
2022-11-05T13:19:24.762Z,2.97
2022-11-05T13:21:57.738Z,3.30
2022-11-05T13:24:32.230Z,3.63
2022-11-05T13:27:08.349Z,2.63
2022-11-05T13:29:42.500Z,2.38
2022-11-05T13:32:26.186Z,2.83
2022-11-05T13:34:57.298Z,1.75
2022-11-05T13:37:55.269Z,1.70
2022-11-05T13:40:48.081Z,1.40
2022-11-05T13:43:29.105Z,1.30
2022-11-05T13:46:17.760Z,1.60
2022-11-05T13:49:12.700Z,1.33
2022-11-05T13:51:59.826Z,1.52
2022-11-05T13:54:49.771Z,1.90
2022-11-05T13:57:34.592Z,2.30
2022-11-05T14:00:12.630Z,5.32
2022-11-05T14:02:45.319Z,2.50
2022-11-05T14:05:25.693Z,2.33
2022-11-05T14:07:55.084Z,1.38
2022-11-05T14:10:36.769Z,1.70
2022-11-05T14:13:18.743Z,2.17
2022-11-05T14:18:42.357Z,1.25
2022-11-05T14:21:48.284Z,1.40
2022-11-05T14:24:29.606Z,1.20
2022-11-05T14:27:35.365Z,1.02
2022-11-05T14:30:41.517Z,1.80
2022-11-05T14:33:32.313Z,3.35
2022-11-05T14:36:30.930Z,2.25
2022-11-05T14:39:20.002Z,1.83
2022-11-05T14:42:13.298Z,2.42
2022-11-05T14:44:58.449Z,2.33
2022-11-05T14:47:32.861Z,3.00
2022-11-05T14:50:08.867Z,2.70
2022-11-05T14:52:38.302Z,1.30
2022-11-05T14:55:08.375Z,1.30
2022-11-05T14:58:06.568Z,1.98
2022-11-05T15:00:47.007Z,1.95
2022-11-05T15:04:01.165Z,1.77
2022-11-05T15:06:32.661Z,1.48
2022-11-05T15:09:29.066Z,1.60
2022-11-05T15:12:10.595Z,1.17
2022-11-05T15:14:49.059Z,1.17
2022-11-05T15:17:22.881Z,1.63
2022-11-05T15:19:54.389Z,1.27
2022-11-05T15:22:32.257Z,1.13
2022-11-05T15:25:01.118Z,1.05
2022-11-05T15:27:58.309Z,1.02
2022-11-05T15:30:26.568Z,1.10
2022-11-05T15:32:55.199Z,0.90
2022-11-05T15:35:29.648Z,1.13
2022-11-05T15:38:02.508Z,0.95
2022-11-05T15:40:33.275Z,1.25
2022-11-05T15:43:19.582Z,1.10
2022-11-05T15:46:04.049Z,1.00
2022-11-05T15:48:32.626Z,1.65
2022-11-05T15:51:02.967Z,1.60
2022-11-05T15:54:01.761Z,1.02
2022-11-05T15:56:25.924Z,0.80
2022-11-05T15:58:57.027Z,1.20
2022-11-05T16:01:29.396Z,1.20
2022-11-05T16:03:59.949Z,1.02
2022-11-05T16:06:36.702Z,1.20
2022-11-05T16:09:05.622Z,1.45
2022-11-05T16:11:33.894Z,1.42
2022-11-05T16:14:17.073Z,1.90
2022-11-05T16:16:46.257Z,1.67
2022-11-05T16:19:40.499Z,1.80
2022-11-05T16:22:10.578Z,4.25
2022-11-05T16:24:39.066Z,2.90
2022-11-05T16:27:08.224Z,2.40
2022-11-05T16:29:38.210Z,2.10
2022-11-05T16:32:15.081Z,1.50
2022-11-05T16:34:47.939Z,1.90
2022-11-05T16:37:20.054Z,1.45
2022-11-05T16:39:48.248Z,1.98
2022-11-05T16:42:40.962Z,1.98
2022-11-05T16:45:14.011Z,2.17
2022-11-05T16:47:43.448Z,2.10
2022-11-05T16:50:23.953Z,1.88
2022-11-05T16:52:54.065Z,2.40
2022-11-05T16:55:22.631Z,2.10
2022-11-05T16:57:53.533Z,1.77
2022-11-05T17:00:23.392Z,2.20
2022-11-05T17:02:51.977Z,2.20
2022-11-05T17:05:23.190Z,2.58
2022-11-05T17:07:53.413Z,2.13
2022-11-05T17:10:22.469Z,1.88
2022-11-05T17:12:51.665Z,1.80
2022-11-05T17:15:22.964Z,2.10
2022-11-05T17:17:51.762Z,2.00
2022-11-05T17:20:41.036Z,1.80
2022-11-05T17:23:12.860Z,2.08
2022-11-05T17:25:42.167Z,2.35
2022-11-05T17:28:11.777Z,2.28
2022-11-05T17:30:41.991Z,2.15
2022-11-05T17:33:12.004Z,2.60
2022-11-05T17:35:41.100Z,2.70
2022-11-05T17:38:11.332Z,2.28
2022-11-05T17:40:39.868Z,2.10
2022-11-05T17:43:09.025Z,2.50
2022-11-05T17:45:43.890Z,2.50
2022-11-05T17:48:12.733Z,2.60
2022-11-05T17:50:42.216Z,3.17
2022-11-05T17:53:12.622Z,3.33
2022-11-05T17:55:42.746Z,2.75
2022-11-05T17:58:11.108Z,3.10
2022-11-05T18:00:40.282Z,2.80
2022-11-05T18:03:08.999Z,3.00
2022-11-05T18:05:38.033Z,3.60
2022-11-05T18:08:07.100Z,3.60
2022-11-05T18:10:37.965Z,4.40
2022-11-05T18:13:06.611Z,3.70
2022-11-05T18:15:36.378Z,2.60
2022-11-05T18:18:05.174Z,3.10
2022-11-05T18:20:33.521Z,2.40
2022-11-05T18:23:01.755Z,2.25
2022-11-05T18:25:29.976Z,2.10
2022-11-05T18:27:59.720Z,2.35
2022-11-05T18:30:27.930Z,2.40
2022-11-05T18:32:56.125Z,2.13
2022-11-05T18:35:24.376Z,2.20
2022-11-05T18:37:52.850Z,2.78
2022-11-05T18:40:21.077Z,2.10
2022-11-05T18:42:49.277Z,2.80
2022-11-05T18:45:19.163Z,2.55
2022-11-05T18:47:47.493Z,3.25
2022-11-05T18:50:15.686Z,2.85
2022-11-05T18:52:44.170Z,2.88
2022-11-05T18:55:12.344Z,3.25
2022-11-05T18:57:40.686Z,2.38
2022-11-05T19:00:10.255Z,1.90
2022-11-05T19:02:40.268Z,2.60
2022-11-05T19:07:57.692Z,1.92
2022-11-05T19:10:26.348Z,1.98
2022-11-05T19:12:54.722Z,2.22
2022-11-05T19:15:22.970Z,2.60
2022-11-05T19:17:52.567Z,2.38
2022-11-05T19:20:20.850Z,2.47
2022-11-05T19:22:49.055Z,2.33
2022-11-05T19:25:17.588Z,2.20
2022-11-05T19:27:45.792Z,2.78
2022-11-05T19:30:14.249Z,2.15
2022-11-05T19:32:42.625Z,2.28
2022-11-05T19:35:12.366Z,2.40
2022-11-05T19:37:40.757Z,2.50
2022-11-05T19:40:11.096Z,2.47
2022-11-05T19:42:39.336Z,2.70
2022-11-05T19:45:38.490Z,2.53
2022-11-05T19:47:56.826Z,2.92
2022-11-05T19:50:26.421Z,3.63
2022-11-05T19:52:54.633Z,3.88
2022-11-05T19:55:22.837Z,3.40
2022-11-05T19:57:51.023Z,3.40
2022-11-05T20:00:19.646Z,3.30
2022-11-05T20:02:48.114Z,3.55
2022-11-05T20:05:18.299Z,3.67
2022-11-05T20:07:52.828Z,4.03
2022-11-05T20:10:22.081Z,4.35
2022-11-05T20:12:50.547Z,4.68
2022-11-05T20:15:19.777Z,6.10
2022-11-05T20:17:51.708Z,7.32
2022-11-05T20:20:20.812Z,7.45
2022-11-05T20:22:52.263Z,4.78
2022-11-05T20:25:20.509Z,4.28
2022-11-05T20:27:48.726Z,4.32
2022-11-05T20:30:17.477Z,4.10
2022-11-05T20:32:45.641Z,4.63
2022-11-05T20:35:13.877Z,3.75
2022-11-05T20:37:42.054Z,3.70
2022-11-05T20:40:14.079Z,3.60
2022-11-05T20:42:43.070Z,4.75
2022-11-05T20:45:12.115Z,3.83
2022-11-05T20:47:40.313Z,3.45
2022-11-05T20:50:10.281Z,4.80
2022-11-05T20:52:38.485Z,4.47
2022-11-05T20:55:09.115Z,4.75
2022-11-05T20:57:38.873Z,4.20
2022-11-05T21:00:09.104Z,4.00
2022-11-05T21:02:39.829Z,4.95
2022-11-05T21:05:09.007Z,7.68
2022-11-05T21:07:37.776Z,5.95
2022-11-05T21:10:06.777Z,6.30
2022-11-05T21:12:34.977Z,6.68
2022-11-05T21:15:05.691Z,6.57
2022-11-05T21:17:33.871Z,7.30
2022-11-05T21:20:02.144Z,8.50
2022-11-05T21:22:30.344Z,9.55
2022-11-05T21:24:58.705Z,8.63
2022-11-05T21:27:26.926Z,9.98
2022-11-05T21:29:55.099Z,12.20
2022-11-05T21:32:24.763Z,13.15
2022-11-05T21:34:52.996Z,11.30
2022-11-05T21:37:22.175Z,10.20
2022-11-05T21:39:50.388Z,11.63
2022-11-05T21:42:18.577Z,10.50
2022-11-05T21:44:46.744Z,10.65
2022-11-05T21:47:14.999Z,11.48
2022-11-05T21:49:44.797Z,11.35
2022-11-05T21:52:30.583Z,11.93
2022-11-05T21:55:16.337Z,11.18
2022-11-05T21:58:10.795Z,11.20
2022-11-05T22:00:39.271Z,10.90
2022-11-05T22:03:07.496Z,11.55
2022-11-05T22:05:37.208Z,10.88
2022-11-05T22:08:05.636Z,11.70
2022-11-05T22:10:33.791Z,11.15
2022-11-05T22:13:02.786Z,11.60
2022-11-05T22:15:30.969Z,11.23
2022-11-05T22:17:59.144Z,11.20
2022-11-05T22:20:27.349Z,11.07
2022-11-05T22:22:56.930Z,11.02
2022-11-05T22:25:25.407Z,10.00
2022-11-05T22:27:53.564Z,11.77
2022-11-05T22:30:21.716Z,11.45
2022-11-05T22:32:50.031Z,11.45
2022-11-05T22:35:18.467Z,10.65
2022-11-05T22:37:46.638Z,11.27
2022-11-05T22:40:16.278Z,10.57
2022-11-05T22:42:44.564Z,11.48
2022-11-05T22:45:12.780Z,12.73
2022-11-05T22:47:43.067Z,10.35
2022-11-05T22:50:11.572Z,11.40
2022-11-05T22:52:39.763Z,11.73
2022-11-05T22:55:08.310Z,11.00
2022-11-05T22:57:38.009Z,11.35
2022-11-05T23:00:13.617Z,11.27
2022-11-05T23:02:41.912Z,11.93
2022-11-05T23:05:10.732Z,11.48
2022-11-05T23:07:56.592Z,12.00
2022-11-05T23:10:42.464Z,13.00
2022-11-05T23:13:12.034Z,10.93
2022-11-05T23:15:57.740Z,11.90
2022-11-05T23:18:43.415Z,10.88
2022-11-05T23:21:29.081Z,11.05
2022-11-05T23:24:06.280Z,11.52
2022-11-05T23:26:51.302Z,11.15
2022-11-05T23:29:22.276Z,10.90
2022-11-05T23:32:08.499Z,11.02
2022-11-05T23:34:36.738Z,10.68
2022-11-05T23:37:22.993Z,11.02
2022-11-05T23:39:51.463Z,10.77
2022-11-05T23:42:37.204Z,10.73
2022-11-05T23:45:25.863Z,11.57
2022-11-05T23:48:12.189Z,16.00
2022-11-05T23:50:41.194Z,22.75
2022-11-05T23:53:09.921Z,13.80
2022-11-05T23:55:38.171Z,13.75
2022-11-05T23:58:06.716Z,10.05
